Time;durP1;ratioP1;P1;durP2;ratioP2;P2;SDS_P1;SDS_P2;PMS_P1;PMS_P2;Temp;Humidity;BMP_temperature;BMP_pressure;BME280_temperature;BME280_humidity;BME280_pressure;Samples;Min_cycle;Max_cycle;Signal;HPM_P1;HPM_P2
2022/02/26 00:00:37;;;;;;;6.15;2.90;;;3.30;99.90;;;;;;4973832;28;20026;-75
2022/02/26 00:03:03;;;;;;;6.68;2.85;;;3.30;99.90;;;;;;4973541;28;20030;-73
2022/02/26 00:05:29;;;;;;;5.95;3.03;;;3.30;99.90;;;;;;5004877;28;20053;-76
2022/02/26 00:07:55;;;;;;;6.10;2.85;;;3.30;99.90;;;;;;4987318;28;21844;-76
2022/02/26 00:10:20;;;;;;;5.90;2.90;;;3.30;99.90;;;;;;4972930;28;20042;-75
2022/02/26 00:12:46;;;;;;;7.35;3.38;;;3.30;99.90;;;;;;4976917;28;20105;-76
2022/02/26 00:15:12;;;;;;;11.57;3.58;;;3.30;99.90;;;;;;4970364;28;20477;-76
2022/02/26 00:17:38;;;;;;;8.93;3.60;;;3.20;99.90;;;;;;4954270;28;20027;-76
2022/02/26 00:20:04;;;;;;;8.02;3.47;;;3.20;99.90;;;;;;4961610;28;20059;-76
2022/02/26 00:22:30;;;;;;;10.10;3.38;;;3.20;99.90;;;;;;4974305;28;20076;-76
2022/02/26 00:24:56;;;;;;;8.82;3.45;;;3.20;99.90;;;;;;4981492;28;20081;-76
2022/02/26 00:27:21;;;;;;;10.50;3.60;;;3.20;99.90;;;;;;4979722;28;20041;-74
2022/02/26 00:29:47;;;;;;;7.70;3.63;;;3.20;99.90;;;;;;4987823;28;20077;-74
2022/02/26 00:32:13;;;;;;;10.73;4.18;;;3.30;99.90;;;;;;4969657;28;20034;-74
2022/02/26 00:34:39;;;;;;;10.82;4.18;;;3.20;99.90;;;;;;4984736;28;20037;-74
2022/02/26 00:37:05;;;;;;;11.63;4.07;;;3.30;99.90;;;;;;4995664;28;20093;-73
2022/02/26 00:39:31;;;;;;;7.82;3.55;;;3.30;99.90;;;;;;4996849;28;20026;-75
2022/02/26 00:41:57;;;;;;;10.07;3.90;;;3.30;99.90;;;;;;4983743;28;20453;-75
2022/02/26 00:44:23;;;;;;;10.98;3.53;;;3.30;99.90;;;;;;4989961;28;20424;-74
2022/02/26 00:46:49;;;;;;;7.03;3.60;;;3.30;99.90;;;;;;4976068;28;20031;-74
2022/02/26 00:51:59;;;;;;;9.02;3.65;;;3.20;99.90;;;;;;4988603;28;20483;-75
2022/02/26 00:54:24;;;;;;;12.57;3.60;;;3.20;99.90;;;;;;4973128;28;20030;-74
2022/02/26 00:56:50;;;;;;;8.38;3.60;;;3.20;99.90;;;;;;4970267;28;20027;-74
2022/02/26 00:59:16;;;;;;;9.77;4.22;;;3.10;99.90;;;;;;4987371;28;20391;-75
2022/02/26 01:01:42;;;;;;;8.18;3.67;;;3.10;99.90;;;;;;4962549;28;20044;-75
2022/02/26 01:04:08;;;;;;;10.35;3.63;;;3.10;99.90;;;;;;4987630;28;20027;-74
2022/02/26 01:06:35;;;;;;;9.73;3.80;;;3.00;99.90;;;;;;4970446;28;20117;-74
2022/02/26 01:09:02;;;;;;;10.93;3.90;;;3.00;99.90;;;;;;4966289;28;20414;-74
2022/02/26 01:11:27;;;;;;;7.88;3.35;;;3.00;99.90;;;;;;4968753;28;20034;-75
2022/02/26 01:13:53;;;;;;;9.93;4.55;;;2.90;99.90;;;;;;4978909;28;20030;-75
2022/02/26 01:16:19;;;;;;;10.20;4.38;;;2.90;99.90;;;;;;4974970;28;20023;-74
2022/02/26 01:18:44;;;;;;;15.52;4.65;;;2.80;99.90;;;;;;4968920;28;20034;-74
2022/02/26 01:21:10;;;;;;;7.50;4.28;;;2.80;99.90;;;;;;4972457;28;20129;-74
2022/02/26 01:23:35;;;;;;;9.68;4.63;;;2.80;99.90;;;;;;4985824;28;20122;-75
2022/02/26 01:26:01;;;;;;;11.77;4.45;;;2.80;99.90;;;;;;4981459;28;20027;-75
2022/02/26 01:28:27;;;;;;;10.05;4.18;;;2.70;99.90;;;;;;4977927;28;20102;-75
2022/02/26 01:30:52;;;;;;;10.38;4.95;;;2.70;99.90;;;;;;4956414;28;20065;-75
2022/02/26 01:33:18;;;;;;;10.98;4.65;;;2.70;99.90;;;;;;4960567;28;20068;-75
2022/02/26 01:35:44;;;;;;;12.48;4.90;;;2.70;99.90;;;;;;4976260;28;20077;-74
2022/02/26 01:38:09;;;;;;;11.20;4.97;;;2.60;99.90;;;;;;4987303;28;20015;-74
2022/02/26 01:40:35;;;;;;;11.02;4.30;;;2.60;99.90;;;;;;4982481;28;20399;-75
2022/02/26 01:43:01;;;;;;;8.23;4.40;;;2.60;99.90;;;;;;4978674;28;20057;-74
2022/02/26 01:45:27;;;;;;;11.00;4.82;;;2.60;99.90;;;;;;4988901;28;20029;-74
2022/02/26 01:47:54;;;;;;;9.13;4.47;;;2.60;99.90;;;;;;4981839;28;20029;-75
2022/02/26 01:50:20;;;;;;;12.85;4.60;;;2.60;99.90;;;;;;4980047;28;20022;-74
2022/02/26 01:52:47;;;;;;;12.93;4.72;;;2.50;99.90;;;;;;4963393;28;20035;-75
2022/02/26 01:55:13;;;;;;;10.85;4.85;;;2.50;99.90;;;;;;4968483;28;20173;-75
2022/02/26 01:57:39;;;;;;;12.05;4.78;;;2.50;99.90;;;;;;4992318;28;20034;-75
2022/02/26 02:00:08;;;;;;;14.38;4.88;;;2.50;99.90;;;;;;4980896;28;20026;-75
2022/02/26 02:02:34;;;;;;;12.27;5.20;;;2.40;99.90;;;;;;4976457;28;20116;-75
2022/02/26 02:05:00;;;;;;;11.30;5.20;;;2.40;99.90;;;;;;4987846;28;20054;-74
2022/02/26 02:07:26;;;;;;;10.50;5.40;;;2.30;99.90;;;;;;4974635;28;20151;-75
2022/02/26 02:09:51;;;;;;;8.98;4.88;;;2.30;99.90;;;;;;4977363;28;20154;-75
2022/02/26 02:12:17;;;;;;;13.23;5.35;;;2.30;99.90;;;;;;4961288;28;20109;-74
2022/02/26 02:14:46;;;;;;;10.45;4.97;;;2.30;99.90;;;;;;4965716;28;20027;-75
2022/02/26 02:17:12;;;;;;;15.13;5.55;;;2.30;99.90;;;;;;4985825;28;20033;-74
2022/02/26 02:19:37;;;;;;;14.88;5.97;;;2.30;99.90;;;;;;4991034;28;20041;-74
2022/02/26 02:22:04;;;;;;;10.93;5.28;;;2.20;99.90;;;;;;4975696;28;20387;-74
2022/02/26 02:24:30;;;;;;;10.20;5.28;;;2.30;99.90;;;;;;4993145;28;20027;-74
2022/02/26 02:26:59;;;;;;;11.30;5.75;;;2.20;99.90;;;;;;4993449;28;20026;-74
2022/02/26 02:29:25;;;;;;;15.43;5.72;;;2.20;99.90;;;;;;4975816;28;20029;-74
2022/02/26 02:31:50;;;;;;;10.40;5.20;;;2.20;99.90;;;;;;4977330;28;20034;-75
2022/02/26 02:34:16;;;;;;;15.15;6.28;;;2.20;99.90;;;;;;4983066;28;20490;-74
2022/02/26 02:36:43;;;;;;;11.43;5.57;;;2.20;99.90;;;;;;4990296;28;20719;-74
2022/02/26 02:39:10;;;;;;;12.63;5.93;;;2.20;99.90;;;;;;4985894;28;20545;-74
2022/02/26 02:41:36;;;;;;;13.75;5.97;;;2.20;99.90;;;;;;4991078;28;20046;-74
2022/02/26 02:44:01;;;;;;;17.20;6.60;;;2.20;99.90;;;;;;4976392;28;20158;-74
2022/02/26 02:46:27;;;;;;;12.27;6.15;;;2.20;99.90;;;;;;4996248;28;20093;-74
2022/02/26 02:48:54;;;;;;;12.93;6.18;;;2.20;99.90;;;;;;4984348;28;20022;-73
2022/02/26 02:51:20;;;;;;;13.25;5.95;;;2.30;99.90;;;;;;4991285;28;20026;-74
2022/02/26 02:53:46;;;;;;;18.15;6.22;;;2.30;99.90;;;;;;4986865;28;20088;-74
2022/02/26 02:56:11;;;;;;;10.70;5.53;;;2.30;99.90;;;;;;4978498;28;20038;-74
2022/02/26 02:58:37;;;;;;;17.13;6.72;;;2.40;99.90;;;;;;4991015;28;20053;-73
2022/02/26 03:01:03;;;;;;;16.02;6.43;;;2.40;99.90;;;;;;4973409;28;20019;-74
2022/02/26 03:03:28;;;;;;;17.38;6.25;;;2.40;99.90;;;;;;4979975;28;20109;-74
2022/02/26 03:05:54;;;;;;;16.10;6.45;;;2.40;99.90;;;;;;4974359;28;20030;-74
2022/02/26 03:08:23;;;;;;;14.77;6.22;;;2.50;99.90;;;;;;4961980;28;20617;-74
2022/02/26 03:10:52;;;;;;;18.58;6.32;;;2.40;99.90;;;;;;4973525;28;20478;-74
2022/02/26 03:13:20;;;;;;;19.35;6.38;;;2.40;99.90;;;;;;4989728;28;20038;-74
2022/02/26 03:15:46;;;;;;;14.30;6.38;;;2.40;99.90;;;;;;4988356;28;20089;-73
2022/02/26 03:18:11;;;;;;;15.05;6.72;;;2.50;99.90;;;;;;4983430;28;20390;-73
2022/02/26 03:20:37;;;;;;;12.93;6.05;;;2.50;99.90;;;;;;4963298;28;20031;-74
2022/02/26 03:23:03;;;;;;;12.57;6.75;;;2.50;99.90;;;;;;4984605;28;20120;-74
2022/02/26 03:25:28;;;;;;;11.02;6.15;;;2.50;99.90;;;;;;4974018;28;20019;-74
2022/02/26 03:27:54;;;;;;;12.00;6.53;;;2.40;99.90;;;;;;4979260;28;20106;-73
2022/02/26 03:30:20;;;;;;;17.98;6.78;;;2.40;99.90;;;;;;4974942;28;20026;-73
2022/02/26 03:32:45;;;;;;;14.35;6.38;;;2.40;99.90;;;;;;4963545;28;20043;-74
2022/02/26 03:35:12;;;;;;;20.23;7.07;;;2.50;99.90;;;;;;4989995;28;20501;-74
2022/02/26 03:37:37;;;;;;;13.38;6.45;;;2.50;99.90;;;;;;4971998;28;20042;-74
2022/02/26 03:40:09;;;;;;;17.73;6.72;;;2.50;99.90;;;;;;4973889;28;20419;-74
2022/02/26 03:42:35;;;;;;;15.05;6.60;;;2.50;99.90;;;;;;4974163;28;20049;-74
2022/02/26 03:45:01;;;;;;;17.00;6.80;;;2.60;99.90;;;;;;4969563;28;20168;-74
2022/02/26 03:47:27;;;;;;;13.00;6.88;;;2.60;99.90;;;;;;4983882;28;20054;-75
2022/02/26 03:49:52;;;;;;;18.55;7.38;;;2.50;99.90;;;;;;4994457;28;20497;-75
2022/02/26 03:52:22;;;;;;;18.00;6.75;;;2.50;99.90;;;;;;4989743;28;20030;-74
2022/02/26 03:54:48;;;;;;;12.43;6.40;;;2.60;99.90;;;;;;4986123;28;20517;-74
2022/02/26 03:57:14;;;;;;;14.10;7.10;;;2.60;99.90;;;;;;4990847;28;20038;-74
2022/02/26 03:59:40;;;;;;;17.20;6.85;;;2.60;99.90;;;;;;4985949;28;20052;-74
2022/02/26 04:02:06;;;;;;;18.63;7.53;;;2.60;99.90;;;;;;4991554;28;20101;-74
2022/02/26 04:04:32;;;;;;;11.40;6.75;;;2.60;99.90;;;;;;4974276;28;20113;-75
2022/02/26 04:06:57;;;;;;;13.35;6.75;;;2.60;99.90;;;;;;4973196;28;20034;-74
2022/02/26 04:09:23;;;;;;;16.15;7.03;;;2.60;99.90;;;;;;4972748;28;20030;-74
2022/02/26 04:11:49;;;;;;;21.52;6.70;;;2.60;99.90;;;;;;4973266;28;20031;-75
2022/02/26 04:14:15;;;;;;;15.88;7.30;;;2.60;99.90;;;;;;4987517;28;20118;-74
2022/02/26 04:16:40;;;;;;;16.08;7.10;;;2.60;99.90;;;;;;4970181;28;20192;-74
2022/02/26 04:19:06;;;;;;;19.25;7.30;;;2.60;99.90;;;;;;4975575;28;20105;-74
2022/02/26 04:21:33;;;;;;;15.60;6.30;;;2.60;99.90;;;;;;4973598;28;20034;-74
2022/02/26 04:23:59;;;;;;;20.63;7.35;;;2.60;99.90;;;;;;4968645;28;20073;-75
2022/02/26 04:26:25;;;;;;;16.52;6.47;;;2.60;99.90;;;;;;4973519;28;20387;-74
2022/02/26 04:28:53;;;;;;;18.85;7.10;;;2.60;99.90;;;;;;4968374;28;20038;-74
2022/02/26 04:31:19;;;;;;;19.88;7.13;;;2.60;99.90;;;;;;4972721;28;20029;-74
2022/02/26 04:33:45;;;;;;;13.52;6.25;;;2.60;99.90;;;;;;4981485;28;20033;-74
2022/02/26 04:36:11;;;;;;;15.98;6.25;;;2.60;99.90;;;;;;4991518;28;20101;-74
2022/02/26 04:38:38;;;;;;;16.48;6.47;;;2.60;99.90;;;;;;4979399;28;20030;-74
2022/02/26 04:41:05;;;;;;;16.83;6.82;;;2.60;99.90;;;;;;5007855;28;20080;-74
2022/02/26 04:43:33;;;;;;;13.23;6.72;;;2.60;99.90;;;;;;4986017;28;20111;-74
2022/02/26 04:45:59;;;;;;;16.20;6.70;;;2.60;99.90;;;;;;4962411;28;20023;-74
2022/02/26 04:48:24;;;;;;;15.32;6.25;;;2.60;99.90;;;;;;4956056;28;20465;-74
2022/02/26 04:50:50;;;;;;;16.35;5.80;;;2.60;99.90;;;;;;4978926;28;20030;-75
2022/02/26 04:53:16;;;;;;;13.98;6.05;;;2.60;99.90;;;;;;4978633;28;20031;-74
2022/02/26 04:55:42;;;;;;;12.45;5.25;;;2.60;99.90;;;;;;4971655;28;20042;-74
2022/02/26 04:58:08;;;;;;;13.63;6.03;;;2.60;99.90;;;;;;4986460;28;20041;-75
2022/02/26 05:00:34;;;;;;;17.30;5.93;;;2.60;99.90;;;;;;4974667;28;20031;-74
2022/02/26 05:03:00;;;;;;;12.05;5.53;;;2.60;99.90;;;;;;4983919;28;20022;-74
2022/02/26 05:05:25;;;;;;;15.43;6.20;;;2.60;99.90;;;;;;4986345;28;20048;-74
2022/02/26 05:07:51;;;;;;;14.27;5.82;;;2.50;99.90;;;;;;4984166;28;20023;-74
2022/02/26 05:10:17;;;;;;;10.60;5.25;;;2.50;99.90;;;;;;4971669;28;20038;-74
2022/02/26 05:12:42;;;;;;;19.15;6.30;;;2.50;99.90;;;;;;4990112;28;20038;-75
2022/02/26 05:15:09;;;;;;;11.80;5.60;;;2.40;99.90;;;;;;4981474;28;20117;-75
2022/02/26 05:17:36;;;;;;;16.63;5.93;;;2.40;99.90;;;;;;4956466;28;20034;-74
2022/02/26 05:20:03;;;;;;;12.90;5.97;;;2.40;99.90;;;;;;4958997;28;20044;-76
2022/02/26 05:22:28;;;;;;;11.75;5.93;;;2.40;99.90;;;;;;4969211;28;20026;-75
2022/02/26 05:24:54;;;;;;;10.15;5.30;;;2.30;99.90;;;;;;4990859;28;20027;-74
2022/02/26 05:27:20;;;;;;;14.63;5.38;;;2.30;99.90;;;;;;4989813;28;20026;-74
2022/02/26 05:29:45;;;;;;;19.88;5.85;;;2.30;99.90;;;;;;4960793;28;20371;-74
2022/02/26 05:32:11;;;;;;;15.73;5.68;;;2.30;99.90;;;;;;4996237;23;20193;-67
2022/02/26 05:34:37;;;;;;;13.13;5.35;;;2.30;99.90;;;;;;4978014;28;20030;-67
2022/02/26 05:37:02;;;;;;;15.05;5.38;;;2.30;99.90;;;;;;4983779;28;20029;-68
2022/02/26 05:39:28;;;;;;;14.70;5.15;;;2.30;99.90;;;;;;4980221;28;20113;-68
2022/02/26 05:41:54;;;;;;;11.75;6.00;;;2.30;99.90;;;;;;4973515;28;20069;-70
2022/02/26 05:44:20;;;;;;;15.18;5.53;;;2.30;99.90;;;;;;4974622;28;20034;-68
2022/02/26 05:46:45;;;;;;;16.75;6.30;;;2.30;99.90;;;;;;4978466;28;20509;-68
2022/02/26 05:49:11;;;;;;;15.50;5.95;;;2.30;99.90;;;;;;4992812;28;20066;-68
2022/02/26 05:51:37;;;;;;;14.95;6.00;;;2.30;99.90;;;;;;4980312;28;20031;-68
2022/02/26 05:54:02;;;;;;;17.63;6.07;;;2.20;99.90;;;;;;4973516;28;20402;-68
2022/02/26 05:56:28;;;;;;;16.30;5.95;;;2.20;99.90;;;;;;4976935;28;20025;-68
2022/02/26 05:58:53;;;;;;;10.90;6.35;;;2.20;99.90;;;;;;4992778;28;20034;-68
2022/02/26 06:01:19;;;;;;;10.02;5.95;;;2.20;99.90;;;;;;4983861;28;20027;-68
2022/02/26 06:03:44;;;;;;;17.67;6.40;;;2.20;99.90;;;;;;4957844;28;20034;-68
2022/02/26 06:06:10;;;;;;;17.83;6.55;;;2.20;99.90;;;;;;4970904;28;20027;-68
2022/02/26 06:08:35;;;;;;;15.18;6.38;;;2.20;99.90;;;;;;4991373;28;20400;-68
2022/02/26 06:11:01;;;;;;;15.02;6.65;;;2.20;99.90;;;;;;4972454;28;20363;-67
2022/02/26 06:13:27;;;;;;;11.98;6.10;;;2.20;99.90;;;;;;4973946;28;20394;-68
2022/02/26 06:15:52;;;;;;;16.73;6.55;;;2.20;99.90;;;;;;4986554;28;20403;-67
2022/02/26 06:18:18;;;;;;;16.92;6.13;;;2.20;99.90;;;;;;4972538;28;20109;-68
2022/02/26 06:20:44;;;;;;;12.30;6.38;;;2.20;99.90;;;;;;4973578;28;20045;-67
2022/02/26 06:23:09;;;;;;;14.75;6.45;;;2.30;99.90;;;;;;4974207;28;20146;-67
2022/02/26 06:25:35;;;;;;;17.00;6.50;;;2.30;99.90;;;;;;4972587;28;20027;-68
2022/02/26 06:28:00;;;;;;;15.55;6.32;;;2.30;99.90;;;;;;4971273;28;20038;-67
2022/02/26 06:30:26;;;;;;;21.45;6.82;;;2.30;99.90;;;;;;4973903;28;20046;-68
2022/02/26 06:32:52;;;;;;;16.73;7.03;;;2.30;99.90;;;;;;4972686;28;20049;-67
2022/02/26 06:35:18;;;;;;;17.58;6.97;;;2.30;99.90;;;;;;4975006;28;20062;-68
2022/02/26 06:37:44;;;;;;;18.48;7.55;;;2.30;99.90;;;;;;4975297;28;20054;-67
2022/02/26 06:40:10;;;;;;;18.55;8.30;;;2.30;99.90;;;;;;4987339;28;20097;-69
2022/02/26 06:42:36;;;;;;;20.90;8.55;;;2.30;99.90;;;;;;4983728;28;20031;-68
2022/02/26 06:45:02;;;;;;;19.70;8.52;;;2.30;99.90;;;;;;4973019;28;20442;-67
2022/02/26 06:47:28;;;;;;;16.08;8.20;;;2.30;99.90;;;;;;4964388;28;20399;-68
2022/02/26 06:49:53;;;;;;;18.90;8.10;;;2.30;99.90;;;;;;4974829;28;20026;-68
2022/02/26 06:52:19;;;;;;;14.82;7.75;;;2.40;99.90;;;;;;4982187;28;20043;-69
2022/02/26 06:54:45;;;;;;;17.52;7.55;;;2.40;99.90;;;;;;4972696;28;20093;-68
2022/02/26 06:57:10;;;;;;;19.58;7.78;;;2.40;99.90;;;;;;4978747;28;20034;-69
2022/02/26 06:59:36;;;;;;;20.98;7.30;;;2.40;99.90;;;;;;4987169;28;20035;-69
2022/02/26 07:02:01;;;;;;;19.25;8.18;;;2.40;99.90;;;;;;4970105;28;20475;-69
2022/02/26 07:04:29;;;;;;;18.27;8.23;;;2.40;99.90;;;;;;4971500;28;20449;-68
2022/02/26 07:06:54;;;;;;;23.15;9.00;;;2.40;99.90;;;;;;4971840;28;20027;-68
2022/02/26 07:09:23;;;;;;;16.67;8.40;;;2.40;99.90;;;;;;4988896;28;20545;-69
2022/02/26 07:11:49;;;;;;;21.33;8.82;;;2.30;99.90;;;;;;4984183;28;20340;-69
2022/02/26 07:14:16;;;;;;;18.67;8.40;;;2.30;99.90;;;;;;4975773;28;20030;-69
2022/02/26 07:16:42;;;;;;;20.58;10.55;;;2.40;99.90;;;;;;4972840;28;20031;-69
2022/02/26 07:19:08;;;;;;;17.35;8.85;;;2.40;99.90;;;;;;4971241;28;20026;-68
2022/02/26 07:21:35;;;;;;;17.67;8.88;;;2.50;99.90;;;;;;4973478;28;20023;-68
2022/02/26 07:24:01;;;;;;;25.88;9.98;;;2.50;99.90;;;;;;4984365;28;20026;-68
2022/02/26 07:26:29;;;;;;;21.65;9.10;;;2.50;99.90;;;;;;4975541;28;20046;-68
2022/02/26 07:28:55;;;;;;;21.42;8.23;;;2.50;99.90;;;;;;4971045;28;20034;-66
2022/02/26 07:31:21;;;;;;;20.13;7.93;;;2.60;99.90;;;;;;4972434;28;20035;-66
2022/02/26 07:33:47;;;;;;;24.52;7.85;;;2.60;99.90;;;;;;4962748;28;20037;-68
2022/02/26 07:36:13;;;;;;;17.48;7.18;;;2.70;99.90;;;;;;4970705;28;20073;-68
2022/02/26 07:38:39;;;;;;;20.05;7.30;;;2.70;99.90;;;;;;4988363;28;20494;-68
2022/02/26 07:41:08;;;;;;;17.25;7.28;;;2.80;99.90;;;;;;4975665;28;20026;-67
2022/02/26 07:43:35;;;;;;;18.83;8.32;;;2.80;99.90;;;;;;4971542;28;20043;-68
2022/02/26 07:46:01;;;;;;;15.73;7.80;;;2.90;99.90;;;;;;4973793;28;20105;-68
2022/02/26 07:48:26;;;;;;;19.42;8.00;;;2.90;99.90;;;;;;4973614;28;20451;-67
2022/02/26 07:50:52;;;;;;;15.75;7.22;;;2.90;99.90;;;;;;4981322;28;20105;-68
2022/02/26 07:53:18;;;;;;;18.15;8.30;;;2.90;99.90;;;;;;4970740;28;20390;-68
2022/02/26 07:55:44;;;;;;;13.98;7.38;;;3.00;99.90;;;;;;4972831;28;20037;-68
2022/02/26 07:58:10;;;;;;;22.50;9.05;;;3.00;99.90;;;;;;4970661;28;20035;-67
2022/02/26 08:00:36;;;;;;;19.83;9.75;;;3.10;99.90;;;;;;4970771;28;20030;-67
2022/02/26 08:03:02;;;;;;;13.93;6.88;;;3.10;99.90;;;;;;4975053;28;20105;-67
2022/02/26 08:05:28;;;;;;;20.90;7.30;;;3.10;99.90;;;;;;4977721;28;20042;-68
2022/02/26 08:07:53;;;;;;;15.15;6.63;;;3.10;99.90;;;;;;4970177;28;20031;-68
2022/02/26 08:10:21;;;;;;;12.95;6.57;;;3.10;99.90;;;;;;4972995;28;20018;-68
2022/02/26 08:12:48;;;;;;;13.05;5.60;;;3.20;99.90;;;;;;4969502;28;20026;-68
2022/02/26 08:15:14;;;;;;;15.88;6.65;;;3.20;99.90;;;;;;4969475;28;20360;-67
2022/02/26 08:17:43;;;;;;;16.92;6.18;;;3.20;99.90;;;;;;4970857;28;20039;-68
2022/02/26 08:20:09;;;;;;;15.10;6.70;;;3.20;99.90;;;;;;4971051;28;20084;-68
2022/02/26 08:22:35;;;;;;;13.35;6.18;;;3.20;99.90;;;;;;4971930;28;20038;-68
2022/02/26 08:25:00;;;;;;;19.60;6.10;;;3.30;99.90;;;;;;4969100;28;20031;-68
2022/02/26 08:27:26;;;;;;;12.63;6.00;;;3.30;99.90;;;;;;4962006;28;20042;-68
2022/02/26 08:29:52;;;;;;;14.77;5.65;;;3.40;99.90;;;;;;4962406;28;20027;-68
2022/02/26 08:32:18;;;;;;;155.15;79.75;;;3.40;99.90;;;;;;4963234;28;20035;-67
2022/02/26 08:34:44;;;;;;;22.73;8.43;;;3.40;99.90;;;;;;4967809;28;20022;-68
2022/02/26 08:37:09;;;;;;;26.65;11.77;;;3.50;99.90;;;;;;4974744;28;20031;-68
2022/02/26 08:39:35;;;;;;;18.90;7.63;;;3.60;99.90;;;;;;4975098;28;20023;-68
2022/02/26 08:42:01;;;;;;;17.27;7.20;;;3.50;99.90;;;;;;4981229;28;20066;-68
2022/02/26 08:44:27;;;;;;;16.63;6.25;;;3.60;99.90;;;;;;4969535;28;20023;-68
2022/02/26 08:46:52;;;;;;;16.17;5.80;;;3.60;99.90;;;;;;4970209;28;20028;-69
2022/02/26 08:49:18;;;;;;;11.82;5.35;;;3.60;99.90;;;;;;4970498;28;20015;-68
2022/02/26 08:51:43;;;;;;;9.68;5.50;;;3.60;99.90;;;;;;4973159;28;20038;-68
2022/02/26 08:54:09;;;;;;;29.90;15.13;;;3.70;99.90;;;;;;4969176;28;20081;-69
2022/02/26 08:56:35;;;;;;;15.68;6.65;;;3.70;99.90;;;;;;4967507;28;20027;-68
2022/02/26 08:59:01;;;;;;;15.05;4.85;;;3.70;99.90;;;;;;4969434;28;20038;-68
2022/02/26 09:01:27;;;;;;;13.35;4.75;;;3.70;99.90;;;;;;4970774;28;20083;-69
2022/02/26 09:03:52;;;;;;;11.27;4.45;;;3.80;99.90;;;;;;4962673;28;20061;-69
2022/02/26 09:06:18;;;;;;;13.98;5.60;;;3.80;99.90;;;;;;4968916;28;20103;-70
2022/02/26 09:08:44;;;;;;;9.70;4.90;;;3.80;99.90;;;;;;4973549;28;20027;-69
2022/02/26 09:11:10;;;;;;;14.63;4.97;;;3.90;99.90;;;;;;4971604;28;20471;-69
2022/02/26 09:13:39;;;;;;;16.73;5.00;;;3.90;99.90;;;;;;4971576;28;20022;-69
2022/02/26 09:16:06;;;;;;;13.30;5.22;;;4.00;99.90;;;;;;4971441;28;20031;-69
2022/02/26 09:18:31;;;;;;;15.98;4.65;;;4.00;99.90;;;;;;4972311;28;20045;-69
2022/02/26 09:20:57;;;;;;;11.07;4.50;;;4.00;99.90;;;;;;4972265;28;20043;-68
2022/02/26 09:23:23;;;;;;;18.70;4.88;;;4.10;99.90;;;;;;4990188;28;20375;-69
2022/02/26 09:25:49;;;;;;;14.25;4.57;;;4.10;99.90;;;;;;4991351;28;20030;-69
2022/02/26 09:28:14;;;;;;;11.73;4.30;;;4.10;99.90;;;;;;4976943;28;20031;-69
2022/02/26 09:30:41;;;;;;;14.25;4.22;;;4.10;99.90;;;;;;4971614;28;20450;-68
2022/02/26 09:33:06;;;;;;;11.57;4.03;;;4.10;99.90;;;;;;4975451;28;20089;-68
2022/02/26 09:35:32;;;;;;;11.13;3.47;;;4.10;99.90;;;;;;4971117;28;20027;-70
2022/02/26 09:37:57;;;;;;;58.47;25.45;;;4.20;99.90;;;;;;4972000;28;20031;-68
2022/02/26 09:40:23;;;;;;;12.40;4.85;;;4.30;99.90;;;;;;4990790;28;20495;-68
2022/02/26 09:42:49;;;;;;;16.30;3.97;;;4.30;99.90;;;;;;4990947;28;20386;-68
2022/02/26 09:45:15;;;;;;;12.93;3.83;;;4.40;99.90;;;;;;4990627;28;20053;-69
2022/02/26 09:47:42;;;;;;;13.70;4.05;;;4.50;99.90;;;;;;4981354;28;20038;-69
2022/02/26 09:50:08;;;;;;;14.75;4.30;;;4.60;99.90;;;;;;4971354;28;20050;-69
2022/02/26 09:52:39;;;;;;;12.27;4.25;;;4.60;99.90;;;;;;4970778;28;20034;-69
2022/02/26 09:55:06;;;;;;;13.85;4.00;;;4.60;99.90;;;;;;4971713;28;20027;-69
2022/02/26 09:57:32;;;;;;;10.15;2.90;;;4.70;99.90;;;;;;4972030;28;20034;-69
2022/02/26 09:59:58;;;;;;;9.07;3.22;;;4.80;99.90;;;;;;4969756;28;20023;-69
2022/02/26 10:02:33;;;;;;;9.82;3.10;;;4.90;99.90;;;;;;4965121;28;20030;-69
2022/02/26 10:05:01;;;;;;;9.38;2.70;;;4.90;99.90;;;;;;4971832;28;20031;-69
2022/02/26 10:07:27;;;;;;;11.32;2.58;;;5.00;99.90;;;;;;4970520;28;20399;-69
2022/02/26 10:09:55;;;;;;;11.63;3.13;;;5.10;99.90;;;;;;4981925;28;20367;-69
2022/02/26 10:12:24;;;;;;;10.77;3.40;;;5.10;99.90;;;;;;4990823;28;20072;-69
2022/02/26 10:14:53;;;;;;;7.70;2.60;;;5.20;99.90;;;;;;4992715;28;20478;-69
2022/02/26 10:17:39;;;;;;;14.27;2.75;;;5.30;99.90;;;;;;4989001;28;20529;-69
2022/02/26 10:20:18;;;;;;;8.63;2.75;;;5.30;99.90;;;;;;4974275;28;20479;-69
2022/02/26 10:22:48;;;;;;;5.88;2.10;;;5.40;99.90;;;;;;4973198;28;20030;-69
2022/02/26 10:25:20;;;;;;;6.25;2.35;;;5.50;99.90;;;;;;4973059;28;20035;-69
2022/02/26 10:27:49;;;;;;;15.07;5.30;;;5.60;99.90;;;;;;4973487;28;20399;-69
2022/02/26 10:30:21;;;;;;;7.35;2.63;;;5.70;99.90;;;;;;4967324;28;20027;-69
2022/02/26 10:33:23;;;;;;;9.35;1.80;;;5.80;99.90;;;;;;4977928;28;20042;-69
2022/02/26 10:35:56;;;;;;;9.90;2.22;;;5.80;99.90;;;;;;4974394;28;20027;-69
2022/02/26 10:38:24;;;;;;;12.65;2.38;;;5.80;99.90;;;;;;4976335;28;20110;-70
2022/02/26 10:41:00;;;;;;;7.53;2.13;;;5.80;99.90;;;;;;4971691;28;20031;-70
2022/02/26 10:43:46;;;;;;;9.70;1.40;;;5.80;99.90;;;;;;4974274;28;20030;-70
2022/02/26 10:46:30;;;;;;;10.77;1.70;;;5.70;99.90;;;;;;4990464;28;20015;-69
2022/02/26 10:48:57;;;;;;;7.40;1.83;;;5.60;99.90;;;;;;4975917;28;20038;-69
2022/02/26 10:51:37;;;;;;;9.43;1.55;;;5.60;99.90;;;;;;4967206;28;20052;-68
2022/02/26 10:54:05;;;;;;;7.13;1.50;;;5.50;99.90;;;;;;4976812;28;20022;-68
2022/02/26 10:56:39;;;;;;;10.32;1.27;;;5.50;99.90;;;;;;4971134;28;20045;-68
2022/02/26 10:59:10;;;;;;;5.88;1.70;;;5.50;99.90;;;;;;4972376;28;20038;-68
2022/02/26 11:01:37;;;;;;;9.63;1.60;;;5.50;99.90;;;;;;4972906;28;20035;-69
2022/02/26 11:04:03;;;;;;;7.53;1.45;;;5.50;99.90;;;;;;4973371;28;20055;-68
2022/02/26 11:06:30;;;;;;;7.78;1.80;;;5.60;99.90;;;;;;4971775;28;20285;-69
2022/02/26 11:08:56;;;;;;;6.85;1.30;;;5.60;99.90;;;;;;4971882;28;20018;-68
2022/02/26 11:11:23;;;;;;;7.43;1.60;;;5.70;99.90;;;;;;4971987;28;20025;-68
2022/02/26 11:13:51;;;;;;;9.80;1.75;;;5.80;99.90;;;;;;4970548;28;20077;-69
2022/02/26 11:16:20;;;;;;;9.65;1.60;;;5.80;99.90;;;;;;4958575;28;20035;-69
2022/02/26 11:18:48;;;;;;;10.57;3.72;;;5.80;99.90;;;;;;4965945;28;20050;-69
2022/02/26 11:21:16;;;;;;;6.57;1.90;;;5.90;99.90;;;;;;4966284;28;20026;-69
2022/02/26 11:23:43;;;;;;;10.85;1.45;;;5.90;99.90;;;;;;4970330;28;20041;-69
2022/02/26 11:26:10;;;;;;;6.10;1.42;;;5.90;99.90;;;;;;4970248;28;20081;-69
2022/02/26 11:28:38;;;;;;;8.57;1.45;;;5.90;99.90;;;;;;4969740;28;20034;-69
2022/02/26 11:31:10;;;;;;;7.68;1.73;;;5.80;99.90;;;;;;4971715;28;20053;-69
2022/02/26 11:36:05;;;;;;;9.45;1.63;;;5.80;99.90;;;;;;4982119;28;20046;-72
2022/02/26 11:38:36;;;;;;;9.63;1.70;;;5.80;99.90;;;;;;4986682;28;20545;-71
2022/02/26 11:41:16;;;;;;;10.05;1.98;;;5.70;99.90;;;;;;4988157;28;20125;-71
2022/02/26 11:43:46;;;;;;;6.10;1.55;;;5.70;99.90;;;;;;4989099;28;20108;-74
2022/02/26 11:46:24;;;;;;;11.73;1.95;;;5.70;99.90;;;;;;4990660;28;20023;-74
2022/02/26 11:48:50;;;;;;;12.00;1.48;;;5.80;99.90;;;;;;4989123;28;20387;-74
2022/02/26 11:51:18;;;;;;;6.00;1.77;;;5.80;99.90;;;;;;4988467;28;20113;-73
2022/02/26 11:53:50;;;;;;;5.75;1.60;;;5.80;99.90;;;;;;4987188;28;20041;-74
2022/02/26 11:56:16;;;;;;;6.95;1.50;;;5.80;99.90;;;;;;4990999;28;20105;-74
2022/02/26 11:58:44;;;;;;;11.27;1.67;;;5.80;99.90;;;;;;4989898;28;20121;-74
2022/02/26 12:01:14;;;;;;;7.60;1.33;;;5.70;99.90;;;;;;4991672;28;20018;-73
2022/02/26 12:03:52;;;;;;;9.63;1.50;;;5.70;99.90;;;;;;4991565;28;20027;-73
2022/02/26 12:06:21;;;;;;;5.20;1.48;;;5.70;99.90;;;;;;4990430;28;20421;-74
2022/02/26 12:08:47;;;;;;;6.18;1.58;;;5.70;99.90;;;;;;4989705;28;20053;-74
2022/02/26 12:11:14;;;;;;;9.65;1.15;;;5.80;99.90;;;;;;4992040;28;20031;-73
2022/02/26 12:13:42;;;;;;;5.55;1.48;;;5.90;99.90;;;;;;4991862;28;20041;-74
2022/02/26 12:16:25;;;;;;;5.20;1.35;;;6.00;99.90;;;;;;4991587;28;20054;-74
2022/02/26 12:19:16;;;;;;;6.95;1.42;;;6.00;99.90;;;;;;4990798;28;20037;-74
2022/02/26 12:21:45;;;;;;;4.97;1.20;;;6.00;99.90;;;;;;4989519;28;20118;-74
2022/02/26 12:24:15;;;;;;;7.80;1.35;;;6.00;99.90;;;;;;4990245;28;20022;-74
2022/02/26 12:26:58;;;;;;;6.40;1.38;;;6.00;99.90;;;;;;4991142;28;20030;-74
2022/02/26 12:29:32;;;;;;;6.65;1.50;;;6.00;99.90;;;;;;4982958;28;20042;-74
2022/02/26 12:32:06;;;;;;;11.93;2.17;;;5.90;99.90;;;;;;4991177;28;20034;-74
2022/02/26 12:34:37;;;;;;;5.57;1.60;;;6.00;99.90;;;;;;4986159;28;20474;-75
2022/02/26 12:37:11;;;;;;;8.48;1.52;;;6.00;99.90;;;;;;4989246;28;21640;-75
2022/02/26 12:39:45;;;;;;;3.58;1.20;;;6.00;99.90;;;;;;4989963;28;20032;-74
2022/02/26 12:42:21;;;;;;;12.82;1.83;;;6.00;99.90;;;;;;4990391;28;20073;-74
2022/02/26 12:44:47;;;;;;;6.43;1.45;;;6.00;99.90;;;;;;4991269;28;20026;-74
2022/02/26 12:47:14;;;;;;;5.30;1.35;;;6.00;99.90;;;;;;4990652;28;20398;-75
2022/02/26 12:49:40;;;;;;;9.98;1.63;;;6.10;99.90;;;;;;4990041;28;20055;-75
2022/02/26 12:52:06;;;;;;;6.13;1.38;;;6.10;99.70;;;;;;4990088;28;20113;-75